Gildeskaal — LLDI — position and weather

sailwx.info

Track history (hours):
 
Tides and Currents Weather Stations Pressure Air Temp Water Temp Dewpoint Dewpoint Depression Visibility Wind Speed Wind Dir Waves Ship Positions

Gildeskaal

Last reported at 2016-Aug-27 15:33 UTC. Time now 2016-Aug-28 02:18 UTC.
Position N 67°06' E 013°59'.

Length 52 m; draft 3.2 m.

Type: Ship. MMSI: 259680000.

Date/timePositionNaut miles runAvg speedWind from/ knotsBaromVisibWave heightAir tempDewpointWater temp
2016-Aug-27 15:33N 67°06' E 013°59'1 1.2
2016-Aug-27 14:33N 67°05' E 014°01'1 0.2
2016-Aug-27 09:33N 67°06' E 013°59'2 2.4
2016-Aug-27 08:33N 67°08' E 013°59'2 2.0
2016-Aug-27 07:33N 67°06' E 013°59'2 1.7
2016-Aug-27 06:30N 67°05' E 014°02'3 1.7
2016-Aug-27 04:33N 67°08' E 013°59'0 0.0
2016-Aug-27 03:33N 67°08' E 013°59'0 0.0
2016-Aug-27 02:33N 67°08' E 013°59'0 0.0
2016-Aug-27 01:33N 67°08' E 013°59'0 0.0
2016-Aug-27 00:33N 67°08' E 013°59'0 0.0
2016-Aug-26 23:33N 67°08' E 013°59'0 0.0
2016-Aug-26 22:33N 67°08' E 013°59'0 0.0
2016-Aug-26 21:33N 67°08' E 013°59'0 0.0
2016-Aug-26 20:33N 67°08' E 013°59'0 0.0
2016-Aug-26 19:34N 67°08' E 013°59'3 2.9
2016-Aug-26 18:23N 67°05' E 014°02'2 2.2
2016-Aug-26 17:33N 67°06' E 013°59'1 0.6
2016-Aug-26 15:33N 67°05' E 013°60'1 0.9
2016-Aug-26 14:32N 67°05' E 014°02'0 0.2
2016-Aug-26 13:28N 67°05' E 014°02'3 3.7
2016-Aug-26 12:33N 67°08' E 013°59'0 0.0
2016-Aug-26 11:33N 67°08' E 013°59'3 3.4
2016-Aug-26 10:33N 67°05' E 014°02'1 1.4
2016-Aug-26 09:33N 67°06' E 013°59'2 2.3
2016-Aug-26 08:33N 67°08' E 013°59'3 2.6
2016-Aug-26 07:32N 67°06' E 013°59'1 0.3
2016-Aug-26 04:33N 67°06' E 013°59'2 0.2
2016-Aug-25 16:11N 67°05' E 014°03'5 8.0
2016-Aug-25 15:33N 67°02' E 013°52'8 8.0
2016-Aug-25 14:33N 66°58' E 013°35'4 0.2
2016-Aug-24 18:33N 66°55' E 013°30'2 0.1
2016-Aug-23 19:29N 66°56' E 013°26'1 0.1
2016-Aug-23 08:33N 66°57' E 013°28'8 7.9
2016-Aug-23 07:31N 67°01' E 013°46'8 7.9
2016-Aug-23 06:32N 67°05' E 014°04'1 0.5
2016-Aug-23 05:31N 67°05' E 014°02'3 3.6
2016-Aug-23 04:33N 67°08' E 013°59'0 0.0
2016-Aug-23 03:33N 67°08' E 013°59'0 0.0
2016-Aug-23 02:33N 67°08' E 013°59'0 0.0
2016-Aug-23 01:33N 67°08' E 013°59'0 0.0
2016-Aug-23 00:33N 67°08' E 013°59'0 0.0
2016-Aug-22 23:33N 67°08' E 013°59'0 0.0
2016-Aug-22 22:33N 67°08' E 013°59'0 0.0
2016-Aug-22 21:33N 67°08' E 013°59'0 0.0
2016-Aug-22 20:33N 67°08' E 013°59'0 0.0
2016-Aug-22 19:33N 67°08' E 013°59'4 3.6
2016-Aug-22 18:31N 67°05' E 014°04'3 2.8
2016-Aug-22 17:33N 67°07' E 013°59'2 1.6
2016-Aug-22 16:33N 67°05' E 013°60'3 3.0
2016-Aug-22 15:33N 67°08' E 013°59'3 3.3
2016-Aug-22 14:33N 67°05' E 014°01'1 1.2
2016-Aug-22 13:33N 67°04' E 014°04'4 4.0
2016-Aug-22 12:33N 67°08' E 013°59'2 0.6
2016-Aug-22 09:33N 67°06' E 014°00'2 2.1
2016-Aug-22 08:33N 67°08' E 013°59'2 1.8
2016-Aug-22 07:33N 67°06' E 013°59'2 1.0
2016-Aug-22 05:32N 67°05' E 014°02'3 3.5
2016-Aug-22 04:33N 67°08' E 013°59'0 0.0
2016-Aug-22 03:33N 67°08' E 013°59'0 0.0
2016-Aug-22 02:33N 67°08' E 013°59'0 0.0
2016-Aug-22 01:33N 67°08' E 013°59'0 0.0
2016-Aug-22 00:33N 67°08' E 013°59'0 0.0
2016-Aug-21 23:33N 67°08' E 013°59'0 0.0
2016-Aug-21 22:33N 67°08' E 013°59'0 0.0
2016-Aug-21 21:33N 67°08' E 013°59'0 0.0
2016-Aug-21 20:33N 67°08' E 013°59'0 0.0
2016-Aug-21 19:34N 67°08' E 013°59'3 1.6
2016-Aug-21 17:33N 67°05' E 014°03'2 2.1
2016-Aug-21 16:33N 67°07' E 013°59'3 3.1
2016-Aug-21 15:33N 67°04' E 014°04'4 4.3
2016-Aug-21 14:33N 67°08' E 013°59'2 1.8
2016-Aug-21 13:33N 67°06' E 013°59'3 2.0
2016-Aug-21 12:07N 67°04' E 014°04'0 0.0
2016-Aug-21 11:26N 67°04' E 014°04'0 0.0
2016-Aug-21 09:33N 67°04' E 014°04'1 1.1
2016-Aug-21 08:33N 67°05' E 014°03'2 2.0
2016-Aug-21 07:33N 67°06' E 013°59'1 0.1
2016-Aug-20 15:33N 67°06' E 013°59'2 1.6
2016-Aug-20 14:20N 67°05' E 014°04'2 0.5
2016-Aug-20 09:33N 67°06' E 013°59'2 2.1
2016-Aug-20 08:33N 67°08' E 013°59'2 1.6
2016-Aug-20 07:34N 67°07' E 013°59'2 1.9
2016-Aug-20 06:33N 67°05' E 014°02'3 3.4
2016-Aug-20 05:33N 67°08' E 013°59'0 0.0
2016-Aug-20 04:33N 67°08' E 013°59'0 0.0
2016-Aug-20 03:33N 67°08' E 013°59'0 0.0
2016-Aug-20 02:33N 67°08' E 013°59'0 0.0
2016-Aug-20 01:33N 67°08' E 013°59'0 0.0
2016-Aug-20 00:33N 67°08' E 013°59'0 0.0
2016-Aug-19 23:33N 67°08' E 013°59'0 0.0
2016-Aug-19 22:33N 67°08' E 013°59'0 0.0
2016-Aug-19 21:33N 67°08' E 013°59'0 0.0
2016-Aug-19 20:33N 67°08' E 013°59'0 0.0
2016-Aug-19 19:33N 67°08' E 013°59'3 3.0
2016-Aug-19 18:25N 67°05' E 014°02'2 2.5
2016-Aug-19 17:33N 67°07' E 013°59'2 0.8
2016-Aug-19 15:34N 67°05' E 014°00'1 0.3
2016-Aug-19 13:30N 67°05' E 014°02'3 3.6
2016-Aug-19 12:33N 67°08' E 013°59'0 0.0
2016-Aug-19 11:33N 67°08' E 013°59'3 3.3
2016-Aug-19 10:32N 67°05' E 014°02'1 1.5
2016-Aug-19 09:33N 67°06' E 013°59'2 2.3
2016-Aug-19 08:33N 67°08' E 013°59'2 1.8
2016-Aug-19 07:33N 67°06' E 013°59'2 0.9
2016-Aug-19 05:31N 67°05' E 014°02'3 3.6
2016-Aug-19 04:33N 67°08' E 013°59'0 0.0
2016-Aug-19 03:33N 67°08' E 013°59'0 0.0
2016-Aug-19 02:33N 67°08' E 013°59'0 0.0
2016-Aug-19 01:33N 67°08' E 013°59'0 0.0
2016-Aug-19 00:33N 67°08' E 013°59'0 0.0
2016-Aug-18 23:33N 67°08' E 013°59'0 0.0
2016-Aug-18 22:33N 67°08' E 013°59'0 0.0
2016-Aug-18 21:33N 67°08' E 013°59'0 0.0
2016-Aug-18 20:34N 67°08' E 013°59'0 0.0
2016-Aug-18 19:33N 67°08' E 013°59'3 3.0
2016-Aug-18 18:28N 67°05' E 014°03'2 2.0
2016-Aug-18 17:33N 67°06' E 013°59'1 1.0
2016-Aug-18 16:33N 67°05' E 013°60'3 2.8
2016-Aug-18 15:33N 67°08' E 013°59'3 3.0
2016-Aug-18 14:29N 67°05' E 014°03'1 0.5
2016-Aug-18 13:33N 67°05' E 014°03'4 3.7
2016-Aug-18 12:33N 67°08' E 013°59'0 0.0
2016-Aug-18 11:33N 67°08' E 013°59'3 2.7
2016-Aug-18 10:33N 67°06' E 013°59'1 0.6
2016-Aug-18 09:33N 67°06' E 013°59'2 2.1
2016-Aug-18 08:33N 67°08' E 013°59'2 1.6
2016-Aug-18 07:34N 67°07' E 013°59'2 1.0
2016-Aug-18 05:30N 67°05' E 014°02'3 3.6
2016-Aug-18 04:33N 67°08' E 013°59'0 0.0
2016-Aug-18 03:33N 67°08' E 013°59'0 0.0
2016-Aug-18 02:33N 67°08' E 013°59'0 0.0
2016-Aug-18 01:33N 67°08' E 013°59'0 0.0
2016-Aug-18 00:33N 67°08' E 013°59'0 0.0
2016-Aug-17 23:33N 67°08' E 013°59'0 0.0
2016-Aug-17 22:33N 67°08' E 013°59'0 0.0
2016-Aug-17 21:33N 67°08' E 013°59'0 0.0
2016-Aug-17 20:33N 67°08' E 013°59'0 0.0
2016-Aug-17 19:33N 67°08' E 013°59'4 3.8
2016-Aug-17 18:33N 67°05' E 014°04'3 2.6
2016-Aug-17 17:33N 67°07' E 013°59'1 1.5
2016-Aug-17 16:33N 67°05' E 014°00'3 3.0
2016-Aug-17 15:33N 67°08' E 013°59'  
Track history (hours):
 
Tides and Currents Weather Stations Pressure Air Temp Water Temp Dewpoint Dewpoint Depression Visibility Wind Speed Wind Dir Waves Ship Positions

Gildeskaal

Last reported at 2016-Aug-27 15:33 UTC. Time now 2016-Aug-28 02:18 UTC.
Position N 67°06' E 013°59'.

Length 52 m; draft 3.2 m.

Type: Ship. MMSI: 259680000.

Date/timePositionNaut miles runAvg speedWind from/ knotsBaromVisibWave heightAir tempDewpointWater temp
2016-Aug-27 15:33N 67°06' E 013°59'1 1.2
2016-Aug-27 14:33N 67°05' E 014°01'1 0.2
2016-Aug-27 09:33N 67°06' E 013°59'2 2.4
2016-Aug-27 08:33N 67°08' E 013°59'2 2.0
2016-Aug-27 07:33N 67°06' E 013°59'2 1.7
2016-Aug-27 06:30N 67°05' E 014°02'3 1.7
2016-Aug-27 04:33N 67°08' E 013°59'0 0.0
2016-Aug-27 03:33N 67°08' E 013°59'0 0.0
2016-Aug-27 02:33N 67°08' E 013°59'0 0.0
2016-Aug-27 01:33N 67°08' E 013°59'0 0.0
2016-Aug-27 00:33N 67°08' E 013°59'0 0.0
2016-Aug-26 23:33N 67°08' E 013°59'0 0.0
2016-Aug-26 22:33N 67°08' E 013°59'0 0.0
2016-Aug-26 21:33N 67°08' E 013°59'0 0.0
2016-Aug-26 20:33N 67°08' E 013°59'0 0.0
2016-Aug-26 19:34N 67°08' E 013°59'3 2.9
2016-Aug-26 18:23N 67°05' E 014°02'2 2.2
2016-Aug-26 17:33N 67°06' E 013°59'1 0.6
2016-Aug-26 15:33N 67°05' E 013°60'1 0.9
2016-Aug-26 14:32N 67°05' E 014°02'0 0.2
2016-Aug-26 13:28N 67°05' E 014°02'3 3.7
2016-Aug-26 12:33N 67°08' E 013°59'0 0.0
2016-Aug-26 11:33N 67°08' E 013°59'3 3.4
2016-Aug-26 10:33N 67°05' E 014°02'1 1.4
2016-Aug-26 09:33N 67°06' E 013°59'2 2.3
2016-Aug-26 08:33N 67°08' E 013°59'3 2.6
2016-Aug-26 07:32N 67°06' E 013°59'1 0.3
2016-Aug-26 04:33N 67°06' E 013°59'2 0.2
2016-Aug-25 16:11N 67°05' E 014°03'5 8.0
2016-Aug-25 15:33N 67°02' E 013°52'8 8.0
2016-Aug-25 14:33N 66°58' E 013°35'4 0.2
2016-Aug-24 18:33N 66°55' E 013°30'2 0.1
2016-Aug-23 19:29N 66°56' E 013°26'1 0.1
2016-Aug-23 08:33N 66°57' E 013°28'8 7.9
2016-Aug-23 07:31N 67°01' E 013°46'8 7.9
2016-Aug-23 06:32N 67°05' E 014°04'1 0.5
2016-Aug-23 05:31N 67°05' E 014°02'3 3.6
2016-Aug-23 04:33N 67°08' E 013°59'0 0.0
2016-Aug-23 03:33N 67°08' E 013°59'0 0.0
2016-Aug-23 02:33N 67°08' E 013°59'0 0.0
2016-Aug-23 01:33N 67°08' E 013°59'0 0.0
2016-Aug-23 00:33N 67°08' E 013°59'0 0.0
2016-Aug-22 23:33N 67°08' E 013°59'0 0.0
2016-Aug-22 22:33N 67°08' E 013°59'0 0.0
2016-Aug-22 21:33N 67°08' E 013°59'0 0.0
2016-Aug-22 20:33N 67°08' E 013°59'0 0.0
2016-Aug-22 19:33N 67°08' E 013°59'4 3.6
2016-Aug-22 18:31N 67°05' E 014°04'3 2.8
2016-Aug-22 17:33N 67°07' E 013°59'2 1.6
2016-Aug-22 16:33N 67°05' E 013°60'3 3.0
2016-Aug-22 15:33N 67°08' E 013°59'3 3.3
2016-Aug-22 14:33N 67°05' E 014°01'1 1.2
2016-Aug-22 13:33N 67°04' E 014°04'4 4.0
2016-Aug-22 12:33N 67°08' E 013°59'2 0.6
2016-Aug-22 09:33N 67°06' E 014°00'2 2.1
2016-Aug-22 08:33N 67°08' E 013°59'2 1.8
2016-Aug-22 07:33N 67°06' E 013°59'2 1.0
2016-Aug-22 05:32N 67°05' E 014°02'3 3.5
2016-Aug-22 04:33N 67°08' E 013°59'0 0.0
2016-Aug-22 03:33N 67°08' E 013°59'0 0.0
2016-Aug-22 02:33N 67°08' E 013°59'0 0.0
2016-Aug-22 01:33N 67°08' E 013°59'0 0.0
2016-Aug-22 00:33N 67°08' E 013°59'0 0.0
2016-Aug-21 23:33N 67°08' E 013°59'0 0.0
2016-Aug-21 22:33N 67°08' E 013°59'0 0.0
2016-Aug-21 21:33N 67°08' E 013°59'0 0.0
2016-Aug-21 20:33N 67°08' E 013°59'0 0.0
2016-Aug-21 19:34N 67°08' E 013°59'3 1.6
2016-Aug-21 17:33N 67°05' E 014°03'2 2.1
2016-Aug-21 16:33N 67°07' E 013°59'3 3.1
2016-Aug-21 15:33N 67°04' E 014°04'4 4.3
2016-Aug-21 14:33N 67°08' E 013°59'2 1.8
2016-Aug-21 13:33N 67°06' E 013°59'3 2.0
2016-Aug-21 12:07N 67°04' E 014°04'0 0.0
2016-Aug-21 11:26N 67°04' E 014°04'0 0.0
2016-Aug-21 09:33N 67°04' E 014°04'1 1.1
2016-Aug-21 08:33N 67°05' E 014°03'2 2.0
2016-Aug-21 07:33N 67°06' E 013°59'1 0.1
2016-Aug-20 15:33N 67°06' E 013°59'2 1.6
2016-Aug-20 14:20N 67°05' E 014°04'2 0.5
2016-Aug-20 09:33N 67°06' E 013°59'2 2.1
2016-Aug-20 08:33N 67°08' E 013°59'2 1.6
2016-Aug-20 07:34N 67°07' E 013°59'2 1.9
2016-Aug-20 06:33N 67°05' E 014°02'3 3.4
2016-Aug-20 05:33N 67°08' E 013°59'0 0.0
2016-Aug-20 04:33N 67°08' E 013°59'0 0.0
2016-Aug-20 03:33N 67°08' E 013°59'0 0.0
2016-Aug-20 02:33N 67°08' E 013°59'0 0.0
2016-Aug-20 01:33N 67°08' E 013°59'0 0.0
2016-Aug-20 00:33N 67°08' E 013°59'0 0.0
2016-Aug-19 23:33N 67°08' E 013°59'0 0.0
2016-Aug-19 22:33N 67°08' E 013°59'0 0.0
2016-Aug-19 21:33N 67°08' E 013°59'0 0.0
2016-Aug-19 20:33N 67°08' E 013°59'0 0.0
2016-Aug-19 19:33N 67°08' E 013°59'3 3.0
2016-Aug-19 18:25N 67°05' E 014°02'2 2.5
2016-Aug-19 17:33N 67°07' E 013°59'2 0.8
2016-Aug-19 15:34N 67°05' E 014°00'1 0.3
2016-Aug-19 13:30N 67°05' E 014°02'3 3.6
2016-Aug-19 12:33N 67°08' E 013°59'0 0.0
2016-Aug-19 11:33N 67°08' E 013°59'3 3.3
2016-Aug-19 10:32N 67°05' E 014°02'1 1.5
2016-Aug-19 09:33N 67°06' E 013°59'2 2.3
2016-Aug-19 08:33N 67°08' E 013°59'2 1.8
2016-Aug-19 07:33N 67°06' E 013°59'2 0.9
2016-Aug-19 05:31N 67°05' E 014°02'3 3.6
2016-Aug-19 04:33N 67°08' E 013°59'0 0.0
2016-Aug-19 03:33N 67°08' E 013°59'0 0.0
2016-Aug-19 02:33N 67°08' E 013°59'0 0.0
2016-Aug-19 01:33N 67°08' E 013°59'0 0.0
2016-Aug-19 00:33N 67°08' E 013°59'0 0.0
2016-Aug-18 23:33N 67°08' E 013°59'0 0.0
2016-Aug-18 22:33N 67°08' E 013°59'0 0.0
2016-Aug-18 21:33N 67°08' E 013°59'0 0.0
2016-Aug-18 20:34N 67°08' E 013°59'0 0.0
2016-Aug-18 19:33N 67°08' E 013°59'3 3.0
2016-Aug-18 18:28N 67°05' E 014°03'2 2.0
2016-Aug-18 17:33N 67°06' E 013°59'1 1.0
2016-Aug-18 16:33N 67°05' E 013°60'3 2.8
2016-Aug-18 15:33N 67°08' E 013°59'3 3.0
2016-Aug-18 14:29N 67°05' E 014°03'1 0.5
2016-Aug-18 13:33N 67°05' E 014°03'4 3.7
2016-Aug-18 12:33N 67°08' E 013°59'0 0.0
2016-Aug-18 11:33N 67°08' E 013°59'3 2.7
2016-Aug-18 10:33N 67°06' E 013°59'1 0.6
2016-Aug-18 09:33N 67°06' E 013°59'2 2.1
2016-Aug-18 08:33N 67°08' E 013°59'2 1.6
2016-Aug-18 07:34N 67°07' E 013°59'2 1.0
2016-Aug-18 05:30N 67°05' E 014°02'3 3.6
2016-Aug-18 04:33N 67°08' E 013°59'0 0.0
2016-Aug-18 03:33N 67°08' E 013°59'0 0.0
2016-Aug-18 02:33N 67°08' E 013°59'0 0.0
2016-Aug-18 01:33N 67°08' E 013°59'0 0.0
2016-Aug-18 00:33N 67°08' E 013°59'0 0.0
2016-Aug-17 23:33N 67°08' E 013°59'0 0.0
2016-Aug-17 22:33N 67°08' E 013°59'0 0.0
2016-Aug-17 21:33N 67°08' E 013°59'0 0.0
2016-Aug-17 20:33N 67°08' E 013°59'0 0.0
2016-Aug-17 19:33N 67°08' E 013°59'4 3.8
2016-Aug-17 18:33N 67°05' E 014°04'3 2.6
2016-Aug-17 17:33N 67°07' E 013°59'1 1.5
2016-Aug-17 16:33N 67°05' E 014°00'3 3.0
2016-Aug-17 15:33N 67°08' E 013°59'  

Dump ship's entire track history